sensor_id;sensor_type;location;lat;lon;timestamp;P1;durP1;ratioP1;P2;durP2;ratioP2
37141;SDS011;23041;49.816;20.092;2022-10-16T00:01:25;10.82;;;9.28;;
37141;SDS011;23041;49.816;20.092;2022-10-16T00:03:56;10.60;;;9.60;;
37141;SDS011;23041;49.816;20.092;2022-10-16T00:06:25;11.00;;;9.88;;
37141;SDS011;23041;49.816;20.092;2022-10-16T00:08:53;15.53;;;10.28;;
37141;SDS011;23041;49.816;20.092;2022-10-16T00:11:20;10.70;;;9.78;;
37141;SDS011;23041;49.816;20.092;2022-10-16T00:13:51;10.08;;;8.80;;
37141;SDS011;23041;49.816;20.092;2022-10-16T00:16:23;11.18;;;10.08;;
37141;SDS011;23041;49.816;20.092;2022-10-16T00:18:50;10.50;;;9.50;;
37141;SDS011;23041;49.816;20.092;2022-10-16T00:21:17;11.28;;;9.60;;
37141;SDS011;23041;49.816;20.092;2022-10-16T00:23:46;10.25;;;9.35;;
37141;SDS011;23041;49.816;20.092;2022-10-16T00:26:19;11.22;;;10.23;;
37141;SDS011;23041;49.816;20.092;2022-10-16T00:28:46;11.68;;;10.45;;
37141;SDS011;23041;49.816;20.092;2022-10-16T00:31:17;11.12;;;9.35;;
37141;SDS011;23041;49.816;20.092;2022-10-16T00:33:46;11.00;;;9.68;;
37141;SDS011;23041;49.816;20.092;2022-10-16T00:36:14;10.43;;;9.33;;
37141;SDS011;23041;49.816;20.092;2022-10-16T00:38:46;11.68;;;10.15;;
37141;SDS011;23041;49.816;20.092;2022-10-16T00:41:15;10.10;;;9.15;;
37141;SDS011;23041;49.816;20.092;2022-10-16T00:43:50;10.38;;;9.38;;
37141;SDS011;23041;49.816;20.092;2022-10-16T00:46:26;10.50;;;9.40;;
37141;SDS011;23041;49.816;20.092;2022-10-16T00:49:05;12.55;;;10.13;;
37141;SDS011;23041;49.816;20.092;2022-10-16T00:51:36;11.73;;;10.00;;
37141;SDS011;23041;49.816;20.092;2022-10-16T00:54:03;11.80;;;9.80;;
37141;SDS011;23041;49.816;20.092;2022-10-16T00:59:25;10.78;;;8.95;;
37141;SDS011;23041;49.816;20.092;2022-10-16T01:01:55;10.15;;;9.18;;
37141;SDS011;23041;49.816;20.092;2022-10-16T01:04:22;14.05;;;10.35;;
37141;SDS011;23041;49.816;20.092;2022-10-16T01:09:32;12.55;;;10.28;;
37141;SDS011;23041;49.816;20.092;2022-10-16T01:12:03;10.72;;;9.80;;
37141;SDS011;23041;49.816;20.092;2022-10-16T01:17:35;11.25;;;9.65;;
37141;SDS011;23041;49.816;20.092;2022-10-16T01:20:24;11.60;;;10.40;;
37141;SDS011;23041;49.816;20.092;2022-10-16T01:23:01;12.93;;;9.98;;
37141;SDS011;23041;49.816;20.092;2022-10-16T01:31:05;10.45;;;9.55;;
37141;SDS011;23041;49.816;20.092;2022-10-16T01:33:40;11.12;;;9.93;;
37141;SDS011;23041;49.816;20.092;2022-10-16T01:36:16;12.25;;;10.72;;
37141;SDS011;23041;49.816;20.092;2022-10-16T01:38:52;10.95;;;9.95;;
37141;SDS011;23041;49.816;20.092;2022-10-16T01:41:24;11.20;;;9.80;;
37141;SDS011;23041;49.816;20.092;2022-10-16T01:44:11;11.25;;;10.25;;
37141;SDS011;23041;49.816;20.092;2022-10-16T01:46:38;11.00;;;9.90;;
37141;SDS011;23041;49.816;20.092;2022-10-16T01:49:07;11.60;;;10.30;;
37141;SDS011;23041;49.816;20.092;2022-10-16T01:51:36;13.00;;;10.28;;
37141;SDS011;23041;49.816;20.092;2022-10-16T01:54:04;11.25;;;10.25;;
37141;SDS011;23041;49.816;20.092;2022-10-16T01:56:34;12.78;;;10.58;;
37141;SDS011;23041;49.816;20.092;2022-10-16T01:59:04;10.72;;;9.78;;
37141;SDS011;23041;49.816;20.092;2022-10-16T02:01:34;10.68;;;9.68;;
37141;SDS011;23041;49.816;20.092;2022-10-16T02:04:09;12.28;;;11.08;;
37141;SDS011;23041;49.816;20.092;2022-10-16T02:06:44;12.35;;;11.08;;
37141;SDS011;23041;49.816;20.092;2022-10-16T02:09:11;13.30;;;10.88;;
37141;SDS011;23041;49.816;20.092;2022-10-16T02:11:37;12.63;;;11.38;;
37141;SDS011;23041;49.816;20.092;2022-10-16T02:14:04;13.08;;;11.20;;
37141;SDS011;23041;49.816;20.092;2022-10-16T02:16:36;12.58;;;10.75;;
37141;SDS011;23041;49.816;20.092;2022-10-16T02:19:07;12.53;;;10.93;;
37141;SDS011;23041;49.816;20.092;2022-10-16T02:22:35;11.40;;;10.30;;
37141;SDS011;23041;49.816;20.092;2022-10-16T02:24:20;12.40;;;11.03;;
37141;SDS011;23041;49.816;20.092;2022-10-16T02:27:03;12.58;;;10.40;;
37141;SDS011;23041;49.816;20.092;2022-10-16T02:29:46;13.53;;;11.10;;
37141;SDS011;23041;49.816;20.092;2022-10-16T02:32:16;11.90;;;10.70;;
37141;SDS011;23041;49.816;20.092;2022-10-16T02:34:48;11.83;;;10.50;;
37141;SDS011;23041;49.816;20.092;2022-10-16T02:37:16;12.60;;;11.30;;
37141;SDS011;23041;49.816;20.092;2022-10-16T02:39:44;11.50;;;10.35;;
37141;SDS011;23041;49.816;20.092;2022-10-16T02:42:13;15.00;;;11.30;;
37141;SDS011;23041;49.816;20.092;2022-10-16T02:44:40;14.63;;;10.95;;
37141;SDS011;23041;49.816;20.092;2022-10-16T02:47:07;12.80;;;10.43;;
37141;SDS011;23041;49.816;20.092;2022-10-16T02:49:33;12.63;;;9.65;;
37141;SDS011;23041;49.816;20.092;2022-10-16T02:51:59;13.18;;;10.85;;
37141;SDS011;23041;49.816;20.092;2022-10-16T02:54:26;12.33;;;10.13;;
37141;SDS011;23041;49.816;20.092;2022-10-16T02:56:52;12.80;;;10.90;;
37141;SDS011;23041;49.816;20.092;2022-10-16T02:59:19;12.95;;;10.63;;
37141;SDS011;23041;49.816;20.092;2022-10-16T03:01:45;11.83;;;10.15;;
37141;SDS011;23041;49.816;20.092;2022-10-16T03:04:12;12.13;;;10.80;;
37141;SDS011;23041;49.816;20.092;2022-10-16T03:06:38;11.97;;;10.80;;
37141;SDS011;23041;49.816;20.092;2022-10-16T03:09:04;12.58;;;11.25;;
37141;SDS011;23041;49.816;20.092;2022-10-16T03:11:31;10.72;;;9.83;;
37141;SDS011;23041;49.816;20.092;2022-10-16T03:13:57;12.40;;;11.12;;
37141;SDS011;23041;49.816;20.092;2022-10-16T03:16:23;10.90;;;9.88;;
37141;SDS011;23041;49.816;20.092;2022-10-16T03:18:50;15.38;;;10.90;;
37141;SDS011;23041;49.816;20.092;2022-10-16T03:21:16;11.22;;;10.23;;
37141;SDS011;23041;49.816;20.092;2022-10-16T03:23:42;12.18;;;10.25;;
37141;SDS011;23041;49.816;20.092;2022-10-16T03:26:09;12.65;;;11.35;;
37141;SDS011;23041;49.816;20.092;2022-10-16T03:28:35;11.55;;;10.32;;
37141;SDS011;23041;49.816;20.092;2022-10-16T03:31:02;11.88;;;10.60;;
37141;SDS011;23041;49.816;20.092;2022-10-16T03:33:28;12.25;;;10.90;;
37141;SDS011;23041;49.816;20.092;2022-10-16T03:35:55;11.88;;;10.70;;
37141;SDS011;23041;49.816;20.092;2022-10-16T03:38:21;12.73;;;11.10;;
37141;SDS011;23041;49.816;20.092;2022-10-16T03:40:48;12.90;;;11.60;;
37141;SDS011;23041;49.816;20.092;2022-10-16T03:43:14;12.10;;;11.00;;
37141;SDS011;23041;49.816;20.092;2022-10-16T03:45:41;13.13;;;10.68;;
37141;SDS011;23041;49.816;20.092;2022-10-16T03:48:08;13.62;;;11.12;;
37141;SDS011;23041;49.816;20.092;2022-10-16T03:50:36;12.53;;;11.33;;
37141;SDS011;23041;49.816;20.092;2022-10-16T03:53:03;12.88;;;11.33;;
37141;SDS011;23041;49.816;20.092;2022-10-16T03:55:30;12.37;;;11.08;;
37141;SDS011;23041;49.816;20.092;2022-10-16T03:57:56;13.30;;;11.95;;
37141;SDS011;23041;49.816;20.092;2022-10-16T04:00:22;14.23;;;11.30;;
37141;SDS011;23041;49.816;20.092;2022-10-16T04:02:49;12.18;;;10.85;;
37141;SDS011;23041;49.816;20.092;2022-10-16T04:05:15;13.35;;;10.98;;
37141;SDS011;23041;49.816;20.092;2022-10-16T04:07:41;14.65;;;11.75;;
37141;SDS011;23041;49.816;20.092;2022-10-16T04:10:08;12.15;;;10.65;;
37141;SDS011;23041;49.816;20.092;2022-10-16T04:12:34;14.85;;;11.80;;
37141;SDS011;23041;49.816;20.092;2022-10-16T04:15:01;14.90;;;11.25;;
37141;SDS011;23041;49.816;20.092;2022-10-16T04:17:27;15.85;;;12.40;;
37141;SDS011;23041;49.816;20.092;2022-10-16T04:19:54;13.15;;;11.57;;
37141;SDS011;23041;49.816;20.092;2022-10-16T04:22:20;16.15;;;11.93;;
37141;SDS011;23041;49.816;20.092;2022-10-16T04:24:46;13.40;;;12.10;;
37141;SDS011;23041;49.816;20.092;2022-10-16T04:27:13;17.95;;;12.55;;
37141;SDS011;23041;49.816;20.092;2022-10-16T04:29:39;16.05;;;12.18;;
37141;SDS011;23041;49.816;20.092;2022-10-16T04:32:06;13.35;;;11.57;;
37141;SDS011;23041;49.816;20.092;2022-10-16T04:34:34;11.53;;;10.32;;
37141;SDS011;23041;49.816;20.092;2022-10-16T04:37:01;12.50;;;11.15;;
37141;SDS011;23041;49.816;20.092;2022-10-16T04:39:27;11.95;;;10.75;;
37141;SDS011;23041;49.816;20.092;2022-10-16T04:41:53;15.18;;;12.20;;
37141;SDS011;23041;49.816;20.092;2022-10-16T04:44:20;15.48;;;11.90;;
37141;SDS011;23041;49.816;20.092;2022-10-16T04:46:46;16.77;;;10.13;;
37141;SDS011;23041;49.816;20.092;2022-10-16T04:49:12;11.75;;;10.63;;
37141;SDS011;23041;49.816;20.092;2022-10-16T04:51:39;15.23;;;10.98;;
37141;SDS011;23041;49.816;20.092;2022-10-16T04:54:05;11.97;;;10.78;;
37141;SDS011;23041;49.816;20.092;2022-10-16T04:56:32;12.55;;;11.25;;
37141;SDS011;23041;49.816;20.092;2022-10-16T04:58:58;11.70;;;10.50;;
37141;SDS011;23041;49.816;20.092;2022-10-16T05:01:25;12.58;;;11.28;;
37141;SDS011;23041;49.816;20.092;2022-10-16T05:03:51;12.82;;;10.45;;
37141;SDS011;23041;49.816;20.092;2022-10-16T05:06:17;12.28;;;10.72;;
37141;SDS011;23041;49.816;20.092;2022-10-16T05:08:44;14.70;;;11.18;;
37141;SDS011;23041;49.816;20.092;2022-10-16T05:11:12;13.00;;;11.20;;
37141;SDS011;23041;49.816;20.092;2022-10-16T05:13:38;13.50;;;11.63;;
37141;SDS011;23041;49.816;20.092;2022-10-16T05:16:05;13.40;;;11.35;;
37141;SDS011;23041;49.816;20.092;2022-10-16T05:18:32;11.08;;;9.90;;
37141;SDS011;23041;49.816;20.092;2022-10-16T05:20:58;12.78;;;11.45;;
37141;SDS011;23041;49.816;20.092;2022-10-16T05:23:24;12.03;;;10.58;;
37141;SDS011;23041;49.816;20.092;2022-10-16T05:25:54;12.68;;;11.45;;
37141;SDS011;23041;49.816;20.092;2022-10-16T05:28:24;14.75;;;11.55;;
37141;SDS011;23041;49.816;20.092;2022-10-16T05:30:51;14.95;;;11.18;;
37141;SDS011;23041;49.816;20.092;2022-10-16T05:33:19;12.93;;;10.90;;
37141;SDS011;23041;49.816;20.092;2022-10-16T05:35:50;12.37;;;10.88;;
37141;SDS011;23041;49.816;20.092;2022-10-16T05:38:17;12.50;;;11.03;;
37141;SDS011;23041;49.816;20.092;2022-10-16T05:40:50;14.00;;;11.00;;
37141;SDS011;23041;49.816;20.092;2022-10-16T05:43:18;13.18;;;11.53;;
37141;SDS011;23041;49.816;20.092;2022-10-16T05:45:53;11.53;;;10.40;;
37141;SDS011;23041;49.816;20.092;2022-10-16T05:48:22;12.80;;;11.20;;
37141;SDS011;23041;49.816;20.092;2022-10-16T05:50:56;10.48;;;9.48;;
37141;SDS011;23041;49.816;20.092;2022-10-16T05:53:30;12.63;;;10.72;;
37141;SDS011;23041;49.816;20.092;2022-10-16T05:55:58;13.62;;;10.43;;
37141;SDS011;23041;49.816;20.092;2022-10-16T05:58:27;11.22;;;9.90;;
37141;SDS011;23041;49.816;20.092;2022-10-16T06:01:00;10.25;;;9.18;;
37141;SDS011;23041;49.816;20.092;2022-10-16T06:03:30;11.85;;;10.65;;
37141;SDS011;23041;49.816;20.092;2022-10-16T06:05:56;10.43;;;9.43;;
37141;SDS011;23041;49.816;20.092;2022-10-16T06:08:23;11.50;;;10.30;;
37141;SDS011;23041;49.816;20.092;2022-10-16T06:11:00;11.00;;;9.53;;
37141;SDS011;23041;49.816;20.092;2022-10-16T06:13:29;11.83;;;10.35;;
37141;SDS011;23041;49.816;20.092;2022-10-16T06:15:57;9.70;;;8.83;;
37141;SDS011;23041;49.816;20.092;2022-10-16T06:18:25;13.93;;;9.70;;
37141;SDS011;23041;49.816;20.092;2022-10-16T06:20:52;11.65;;;9.73;;
37141;SDS011;23041;49.816;20.092;2022-10-16T06:23:19;11.38;;;9.23;;
37141;SDS011;23041;49.816;20.092;2022-10-16T06:25:46;9.70;;;8.75;;
37141;SDS011;23041;49.816;20.092;2022-10-16T06:28:13;9.20;;;8.28;;
37141;SDS011;23041;49.816;20.092;2022-10-16T06:30:41;9.73;;;8.75;;
37141;SDS011;23041;49.816;20.092;2022-10-16T06:33:11;11.33;;;9.48;;
37141;SDS011;23041;49.816;20.092;2022-10-16T06:35:38;9.40;;;8.50;;
37141;SDS011;23041;49.816;20.092;2022-10-16T06:38:05;11.38;;;9.33;;
37141;SDS011;23041;49.816;20.092;2022-10-16T06:40:31;9.75;;;8.70;;
37141;SDS011;23041;49.816;20.092;2022-10-16T06:42:58;9.25;;;8.35;;
37141;SDS011;23041;49.816;20.092;2022-10-16T06:45:24;9.50;;;8.50;;
37141;SDS011;23041;49.816;20.092;2022-10-16T06:47:50;11.00;;;9.38;;
37141;SDS011;23041;49.816;20.092;2022-10-16T06:50:17;8.68;;;7.95;;
37141;SDS011;23041;49.816;20.092;2022-10-16T06:52:43;10.60;;;9.58;;
37141;SDS011;23041;49.816;20.092;2022-10-16T06:55:10;9.10;;;8.30;;
37141;SDS011;23041;49.816;20.092;2022-10-16T06:57:36;9.08;;;8.28;;
37141;SDS011;23041;49.816;20.092;2022-10-16T07:00:03;9.45;;;8.50;;
37141;SDS011;23041;49.816;20.092;2022-10-16T07:02:31;10.40;;;8.63;;
37141;SDS011;23041;49.816;20.092;2022-10-16T07:04:57;9.55;;;8.65;;
37141;SDS011;23041;49.816;20.092;2022-10-16T07:07:24;8.65;;;7.83;;
37141;SDS011;23041;49.816;20.092;2022-10-16T07:09:52;8.40;;;7.70;;
37141;SDS011;23041;49.816;20.092;2022-10-16T07:12:18;8.98;;;8.03;;
37141;SDS011;23041;49.816;20.092;2022-10-16T07:14:45;11.00;;;7.90;;
37141;SDS011;23041;49.816;20.092;2022-10-16T07:17:11;8.20;;;7.35;;
37141;SDS011;23041;49.816;20.092;2022-10-16T07:19:38;9.45;;;8.18;;
37141;SDS011;23041;49.816;20.092;2022-10-16T07:22:04;8.08;;;7.35;;
37141;SDS011;23041;49.816;20.092;2022-10-16T07:24:31;10.00;;;7.50;;
37141;SDS011;23041;49.816;20.092;2022-10-16T07:26:57;8.40;;;6.58;;
37141;SDS011;23041;49.816;20.092;2022-10-16T07:29:24;8.38;;;7.22;;
37141;SDS011;23041;49.816;20.092;2022-10-16T07:31:50;6.87;;;6.22;;
37141;SDS011;23041;49.816;20.092;2022-10-16T07:34:17;6.67;;;6.10;;
37141;SDS011;23041;49.816;20.092;2022-10-16T07:36:47;7.70;;;6.53;;
37141;SDS011;23041;49.816;20.092;2022-10-16T07:39:17;6.35;;;5.85;;
37141;SDS011;23041;49.816;20.092;2022-10-16T07:41:44;6.83;;;6.22;;
37141;SDS011;23041;49.816;20.092;2022-10-16T07:44:10;7.78;;;6.17;;
37141;SDS011;23041;49.816;20.092;2022-10-16T07:46:36;7.17;;;6.45;;
37141;SDS011;23041;49.816;20.092;2022-10-16T07:49:03;7.22;;;6.62;;
37141;SDS011;23041;49.816;20.092;2022-10-16T07:51:30;7.03;;;6.33;;
37141;SDS011;23041;49.816;20.092;2022-10-16T07:53:56;7.15;;;6.30;;
37141;SDS011;23041;49.816;20.092;2022-10-16T07:56:23;8.08;;;7.37;;
37141;SDS011;23041;49.816;20.092;2022-10-16T07:58:50;6.70;;;6.10;;
37141;SDS011;23041;49.816;20.092;2022-10-16T08:01:17;8.05;;;7.25;;
37141;SDS011;23041;49.816;20.092;2022-10-16T08:03:45;7.45;;;6.83;;
37141;SDS011;23041;49.816;20.092;2022-10-16T08:08:40;7.08;;;6.45;;
37141;SDS011;23041;49.816;20.092;2022-10-16T08:11:07;7.00;;;6.40;;
37141;SDS011;23041;49.816;20.092;2022-10-16T08:13:34;6.85;;;6.25;;
37141;SDS011;23041;49.816;20.092;2022-10-16T08:16:00;7.30;;;6.53;;
37141;SDS011;23041;49.816;20.092;2022-10-16T08:18:29;6.78;;;6.17;;
37141;SDS011;23041;49.816;20.092;2022-10-16T08:20:56;6.72;;;6.12;;
37141;SDS011;23041;49.816;20.092;2022-10-16T08:23:24;8.30;;;6.90;;
37141;SDS011;23041;49.816;20.092;2022-10-16T08:25:52;7.78;;;7.08;;
37141;SDS011;23041;49.816;20.092;2022-10-16T08:28:20;7.30;;;6.60;;
37141;SDS011;23041;49.816;20.092;2022-10-16T08:30:47;7.42;;;6.70;;
37141;SDS011;23041;49.816;20.092;2022-10-16T08:33:14;7.12;;;6.47;;
37141;SDS011;23041;49.816;20.092;2022-10-16T08:35:40;7.37;;;6.67;;
37141;SDS011;23041;49.816;20.092;2022-10-16T08:38:07;7.70;;;7.00;;
37141;SDS011;23041;49.816;20.092;2022-10-16T08:40:34;7.00;;;6.33;;
37141;SDS011;23041;49.816;20.092;2022-10-16T08:43:16;7.92;;;6.97;;
37141;SDS011;23041;49.816;20.092;2022-10-16T08:45:53;7.90;;;7.05;;
37141;SDS011;23041;49.816;20.092;2022-10-16T08:48:29;7.65;;;6.92;;
37141;SDS011;23041;49.816;20.092;2022-10-16T08:51:18;9.93;;;7.08;;
37141;SDS011;23041;49.816;20.092;2022-10-16T08:56:22;7.58;;;6.72;;
37141;SDS011;23041;49.816;20.092;2022-10-16T08:58:53;8.00;;;7.08;;
37141;SDS011;23041;49.816;20.092;2022-10-16T09:01:20;7.65;;;6.80;;
37141;SDS011;23041;49.816;20.092;2022-10-16T09:07:18;9.20;;;8.30;;
37141;SDS011;23041;49.816;20.092;2022-10-16T09:15:42;8.48;;;7.67;;
37141;SDS011;23041;49.816;20.092;2022-10-16T09:18:51;12.30;;;7.47;;
37141;SDS011;23041;49.816;20.092;2022-10-16T09:20:58;8.15;;;7.45;;
37141;SDS011;23041;49.816;20.092;2022-10-16T09:23:34;7.70;;;7.00;;
37141;SDS011;23041;49.816;20.092;2022-10-16T09:26:02;8.60;;;7.70;;
37141;SDS011;23041;49.816;20.092;2022-10-16T09:28:31;7.97;;;7.28;;
37141;SDS011;23041;49.816;20.092;2022-10-16T09:30:57;9.98;;;7.42;;
37141;SDS011;23041;49.816;20.092;2022-10-16T09:33:25;8.03;;;7.33;;
37141;SDS011;23041;49.816;20.092;2022-10-16T09:36:02;9.53;;;8.53;;
37141;SDS011;23041;49.816;20.092;2022-10-16T09:38:34;8.90;;;8.18;;
37141;SDS011;23041;49.816;20.092;2022-10-16T09:41:02;10.33;;;7.77;;
37141;SDS011;23041;49.816;20.092;2022-10-16T09:46:31;8.85;;;7.87;;
37141;SDS011;23041;49.816;20.092;2022-10-16T09:49:04;11.05;;;7.58;;
37141;SDS011;23041;49.816;20.092;2022-10-16T09:51:43;8.95;;;8.23;;
37141;SDS011;23041;49.816;20.092;2022-10-16T09:56:41;8.68;;;7.80;;
37141;SDS011;23041;49.816;20.092;2022-10-16T09:59:14;8.80;;;8.00;;
37141;SDS011;23041;49.816;20.092;2022-10-16T10:01:44;7.70;;;6.75;;
37141;SDS011;23041;49.816;20.092;2022-10-16T10:04:16;8.60;;;7.72;;
37141;SDS011;23041;49.816;20.092;2022-10-16T10:06:48;8.98;;;8.18;;
37141;SDS011;23041;49.816;20.092;2022-10-16T10:09:34;8.50;;;7.70;;
37141;SDS011;23041;49.816;20.092;2022-10-16T10:12:06;8.65;;;7.85;;
37141;SDS011;23041;49.816;20.092;2022-10-16T10:14:45;8.00;;;7.30;;
37141;SDS011;23041;49.816;20.092;2022-10-16T10:17:16;7.65;;;6.90;;
37141;SDS011;23041;49.816;20.092;2022-10-16T10:19:49;8.83;;;8.03;;
37141;SDS011;23041;49.816;20.092;2022-10-16T10:22:28;7.77;;;7.07;;
37141;SDS011;23041;49.816;20.092;2022-10-16T10:28:16;8.08;;;7.42;;
37141;SDS011;23041;49.816;20.092;2022-10-16T10:33:44;9.28;;;6.90;;
37141;SDS011;23041;49.816;20.092;2022-10-16T10:39:02;7.25;;;6.67;;
37141;SDS011;23041;49.816;20.092;2022-10-16T11:02:26;6.60;;;6.10;;
37141;SDS011;23041;49.816;20.092;2022-10-16T11:05:19;6.45;;;5.85;;
37141;SDS011;23041;49.816;20.092;2022-10-16T11:10:45;6.03;;;5.53;;
37141;SDS011;23041;49.816;20.092;2022-10-16T11:16:28;7.87;;;6.37;;
37141;SDS011;23041;49.816;20.092;2022-10-16T11:19:21;6.10;;;5.60;;
37141;SDS011;23041;49.816;20.092;2022-10-16T11:22:07;7.30;;;6.12;;
37141;SDS011;23041;49.816;20.092;2022-10-16T11:27:17;6.80;;;6.20;;
37141;SDS011;23041;49.816;20.092;2022-10-16T11:29:53;6.50;;;5.90;;
37141;SDS011;23041;49.816;20.092;2022-10-16T11:32:25;6.92;;;6.33;;
37141;SDS011;23041;49.816;20.092;2022-10-16T11:34:58;7.12;;;6.50;;
37141;SDS011;23041;49.816;20.092;2022-10-16T11:37:39;6.42;;;5.83;;
37141;SDS011;23041;49.816;20.092;2022-10-16T11:42:49;9.10;;;8.20;;
37141;SDS011;23041;49.816;20.092;2022-10-16T11:45:24;7.90;;;6.92;;
37141;SDS011;23041;49.816;20.092;2022-10-16T11:53:47;7.60;;;6.45;;
37141;SDS011;23041;49.816;20.092;2022-10-16T12:01:28;7.60;;;6.83;;
37141;SDS011;23041;49.816;20.092;2022-10-16T12:09:38;6.75;;;6.25;;
37141;SDS011;23041;49.816;20.092;2022-10-16T12:15:03;7.50;;;6.80;;
37141;SDS011;23041;49.816;20.092;2022-10-16T12:17:49;8.25;;;7.55;;
37141;SDS011;23041;49.816;20.092;2022-10-16T12:23:06;9.05;;;6.37;;
37141;SDS011;23041;49.816;20.092;2022-10-16T12:30:58;9.38;;;6.70;;
37141;SDS011;23041;49.816;20.092;2022-10-16T12:33:35;7.58;;;6.78;;
37141;SDS011;23041;49.816;20.092;2022-10-16T12:36:03;6.92;;;6.33;;
37141;SDS011;23041;49.816;20.092;2022-10-16T12:38:49;6.30;;;5.72;;
37141;SDS011;23041;49.816;20.092;2022-10-16T12:41:24;6.15;;;5.65;;
37141;SDS011;23041;49.816;20.092;2022-10-16T12:43:57;5.90;;;5.35;;
37141;SDS011;23041;49.816;20.092;2022-10-16T12:49:17;7.28;;;6.53;;
37141;SDS011;23041;49.816;20.092;2022-10-16T12:51:44;6.45;;;5.95;;
37141;SDS011;23041;49.816;20.092;2022-10-16T13:02:51;7.37;;;5.60;;
37141;SDS011;23041;49.816;20.092;2022-10-16T13:08:30;5.72;;;5.17;;
37141;SDS011;23041;49.816;20.092;2022-10-16T13:14:14;5.55;;;5.17;;
37141;SDS011;23041;49.816;20.092;2022-10-16T13:17:07;5.72;;;5.22;;
37141;SDS011;23041;49.816;20.092;2022-10-16T13:20:21;8.20;;;6.08;;
37141;SDS011;23041;49.816;20.092;2022-10-16T13:23:06;7.30;;;6.28;;
37141;SDS011;23041;49.816;20.092;2022-10-16T13:26:01;7.95;;;6.30;;
37141;SDS011;23041;49.816;20.092;2022-10-16T13:28:37;6.37;;;5.87;;
37141;SDS011;23041;49.816;20.092;2022-10-16T13:31:05;6.50;;;6.00;;
37141;SDS011;23041;49.816;20.092;2022-10-16T13:33:39;6.55;;;5.60;;
37141;SDS011;23041;49.816;20.092;2022-10-16T13:36:17;6.62;;;6.03;;
37141;SDS011;23041;49.816;20.092;2022-10-16T13:42:14;7.70;;;6.97;;
37141;SDS011;23041;49.816;20.092;2022-10-16T13:44:49;7.10;;;6.47;;
37141;SDS011;23041;49.816;20.092;2022-10-16T13:50:10;6.37;;;5.78;;
37141;SDS011;23041;49.816;20.092;2022-10-16T13:52:40;6.72;;;6.08;;
37141;SDS011;23041;49.816;20.092;2022-10-16T13:55:17;7.35;;;6.03;;
37141;SDS011;23041;49.816;20.092;2022-10-16T13:57:44;6.65;;;6.15;;
37141;SDS011;23041;49.816;20.092;2022-10-16T14:00:18;6.75;;;6.15;;
37141;SDS011;23041;49.816;20.092;2022-10-16T14:02:53;7.12;;;6.47;;
37141;SDS011;23041;49.816;20.092;2022-10-16T14:05:31;9.38;;;6.60;;
37141;SDS011;23041;49.816;20.092;2022-10-16T14:07:58;6.78;;;6.28;;
37141;SDS011;23041;49.816;20.092;2022-10-16T14:10:27;8.58;;;6.90;;
37141;SDS011;23041;49.816;20.092;2022-10-16T14:12:57;9.45;;;7.58;;
37141;SDS011;23041;49.816;20.092;2022-10-16T14:15:31;7.58;;;6.90;;
37141;SDS011;23041;49.816;20.092;2022-10-16T14:18:00;7.08;;;6.47;;
37141;SDS011;23041;49.816;20.092;2022-10-16T14:20:33;7.87;;;7.15;;
37141;SDS011;23041;49.816;20.092;2022-10-16T14:23:19;7.97;;;7.15;;
37141;SDS011;23041;49.816;20.092;2022-10-16T14:28:41;7.72;;;6.97;;
37141;SDS011;23041;49.816;20.092;2022-10-16T14:33:54;8.43;;;7.42;;
37141;SDS011;23041;49.816;20.092;2022-10-16T14:36:22;9.73;;;7.42;;
37141;SDS011;23041;49.816;20.092;2022-10-16T14:39:03;8.25;;;7.55;;
37141;SDS011;23041;49.816;20.092;2022-10-16T14:41:40;11.40;;;8.45;;
37141;SDS011;23041;49.816;20.092;2022-10-16T14:44:05;14.10;;;7.35;;
37141;SDS011;23041;49.816;20.092;2022-10-16T14:46:35;8.20;;;7.40;;
37141;SDS011;23041;49.816;20.092;2022-10-16T14:49:15;9.68;;;7.92;;
37141;SDS011;23041;49.816;20.092;2022-10-16T14:51:42;8.60;;;7.90;;
37141;SDS011;23041;49.816;20.092;2022-10-16T14:54:10;8.95;;;8.13;;
37141;SDS011;23041;49.816;20.092;2022-10-16T14:56:44;9.73;;;7.72;;
37141;SDS011;23041;49.816;20.092;2022-10-16T14:59:36;9.48;;;8.55;;
37141;SDS011;23041;49.816;20.092;2022-10-16T15:07:49;10.72;;;8.20;;
37141;SDS011;23041;49.816;20.092;2022-10-16T15:10:16;11.33;;;7.60;;
37141;SDS011;23041;49.816;20.092;2022-10-16T15:12:44;12.40;;;7.67;;
37141;SDS011;23041;49.816;20.092;2022-10-16T15:17:55;8.78;;;7.87;;
37141;SDS011;23041;49.816;20.092;2022-10-16T15:20:23;9.38;;;8.28;;
37141;SDS011;23041;49.816;20.092;2022-10-16T15:22:51;11.10;;;8.60;;
37141;SDS011;23041;49.816;20.092;2022-10-16T15:27:58;8.88;;;7.97;;
37141;SDS011;23041;49.816;20.092;2022-10-16T15:30:26;9.00;;;8.20;;
37141;SDS011;23041;49.816;20.092;2022-10-16T15:32:53;9.15;;;8.25;;
37141;SDS011;23041;49.816;20.092;2022-10-16T15:35:20;10.13;;;8.68;;
37141;SDS011;23041;49.816;20.092;2022-10-16T15:37:47;11.57;;;8.45;;
37141;SDS011;23041;49.816;20.092;2022-10-16T15:40:14;11.90;;;7.92;;
37141;SDS011;23041;49.816;20.092;2022-10-16T15:42:42;12.65;;;8.83;;
37141;SDS011;23041;49.816;20.092;2022-10-16T15:45:10;11.85;;;9.68;;
37141;SDS011;23041;49.816;20.092;2022-10-16T15:47:38;10.40;;;9.30;;
37141;SDS011;23041;49.816;20.092;2022-10-16T15:50:07;14.53;;;8.80;;
37141;SDS011;23041;49.816;20.092;2022-10-16T15:52:37;11.00;;;8.80;;
37141;SDS011;23041;49.816;20.092;2022-10-16T15:55:08;12.37;;;8.80;;
37141;SDS011;23041;49.816;20.092;2022-10-16T15:57:36;10.15;;;8.83;;
37141;SDS011;23041;49.816;20.092;2022-10-16T16:00:06;9.53;;;8.23;;
37141;SDS011;23041;49.816;20.092;2022-10-16T16:02:36;9.25;;;8.35;;
37141;SDS011;23041;49.816;20.092;2022-10-16T16:05:02;10.28;;;8.90;;
37141;SDS011;23041;49.816;20.092;2022-10-16T16:07:33;9.53;;;8.53;;
37141;SDS011;23041;49.816;20.092;2022-10-16T16:10:01;9.83;;;8.70;;
37141;SDS011;23041;49.816;20.092;2022-10-16T16:12:30;10.32;;;9.05;;
37141;SDS011;23041;49.816;20.092;2022-10-16T16:14:58;10.72;;;8.98;;
37141;SDS011;23041;49.816;20.092;2022-10-16T16:17:25;9.93;;;8.93;;
37141;SDS011;23041;49.816;20.092;2022-10-16T16:19:51;10.28;;;9.28;;
37141;SDS011;23041;49.816;20.092;2022-10-16T16:22:17;11.08;;;9.98;;
37141;SDS011;23041;49.816;20.092;2022-10-16T16:24:44;14.83;;;11.65;;
37141;SDS011;23041;49.816;20.092;2022-10-16T16:27:10;17.37;;;12.23;;
37141;SDS011;23041;49.816;20.092;2022-10-16T16:29:38;14.23;;;10.80;;
37141;SDS011;23041;49.816;20.092;2022-10-16T16:32:04;11.83;;;10.68;;
37141;SDS011;23041;49.816;20.092;2022-10-16T16:34:30;13.70;;;10.60;;
37141;SDS011;23041;49.816;20.092;2022-10-16T16:36:57;11.05;;;9.85;;
37141;SDS011;23041;49.816;20.092;2022-10-16T16:39:23;11.90;;;9.68;;
37141;SDS011;23041;49.816;20.092;2022-10-16T16:41:50;11.73;;;10.63;;
37141;SDS011;23041;49.816;20.092;2022-10-16T16:44:17;10.90;;;9.90;;
37141;SDS011;23041;49.816;20.092;2022-10-16T16:46:44;14.58;;;10.55;;
37141;SDS011;23041;49.816;20.092;2022-10-16T16:49:11;12.63;;;10.40;;
37141;SDS011;23041;49.816;20.092;2022-10-16T16:51:39;13.18;;;11.88;;
37141;SDS011;23041;49.816;20.092;2022-10-16T16:54:06;18.32;;;12.10;;
37141;SDS011;23041;49.816;20.092;2022-10-16T16:56:35;12.88;;;10.55;;
37141;SDS011;23041;49.816;20.092;2022-10-16T16:59:02;14.95;;;11.25;;
37141;SDS011;23041;49.816;20.092;2022-10-16T17:01:29;11.63;;;10.32;;
37141;SDS011;23041;49.816;20.092;2022-10-16T17:03:57;12.28;;;11.00;;